createdAt,value
2022-08-08T00:00:52.464Z,101397.06
2022-08-08T00:02:50.062Z,101396.28
2022-08-08T00:05:43.695Z,101390.25
2022-08-08T00:08:27.309Z,101388.53
2022-08-08T00:11:07.921Z,101390.31
2022-08-08T00:14:17.186Z,101392.22
2022-08-08T00:16:44.869Z,101395.91
2022-08-08T00:19:19.785Z,101394.25
2022-08-08T00:21:52.540Z,101395.25
2022-08-08T00:24:30.073Z,101398.09
2022-08-08T00:27:05.974Z,101398.28
2022-08-08T00:29:45.203Z,101395.66
2022-08-08T00:32:35.276Z,101401.88
2022-08-08T00:35:30.252Z,101396.50
2022-08-08T00:38:52.156Z,101395.66
2022-08-08T00:42:09.201Z,101395.66
2022-08-08T00:45:29.465Z,101394.97
2022-08-08T00:48:34.143Z,101395.06
2022-08-08T00:51:38.357Z,101393.38
2022-08-08T00:55:00.746Z,101401.44
2022-08-08T00:58:17.207Z,101400.63
2022-08-08T01:01:03.533Z,101401.53
2022-08-08T01:04:05.479Z,101399.84
2022-08-08T01:07:54.840Z,101392.84
2022-08-08T01:11:26.894Z,101392.06
2022-08-08T01:14:54.291Z,101395.69
2022-08-08T01:18:53.298Z,101149.09
2022-08-08T01:22:23.568Z,101352.81
2022-08-08T01:25:40.169Z,101386.88
2022-08-08T01:28:36.872Z,101391.25
2022-08-08T01:32:21.750Z,101389.66
2022-08-08T01:35:48.605Z,101392.56
2022-08-08T01:38:58.902Z,101394.34
2022-08-08T01:41:52.614Z,101413.81
2022-08-08T01:44:43.658Z,101403.28
2022-08-08T01:48:16.830Z,101405.09
2022-08-08T01:50:38.425Z,101398.94
2022-08-08T01:55:17.005Z,101400.81
2022-08-08T01:56:34.144Z,101404.44
2022-08-08T01:59:38.225Z,101403.66
2022-08-08T02:02:39.939Z,101398.41
2022-08-08T02:05:24.976Z,101401.19
2022-08-08T02:08:16.687Z,101401.38
2022-08-08T02:11:02.692Z,101393.53
2022-08-08T02:13:52.562Z,101397.97
2022-08-08T02:16:30.593Z,101402.38
2022-08-08T02:19:26.665Z,101391.75
2022-08-08T02:22:28.435Z,101390.88
2022-08-08T02:25:16.563Z,101173.75
2022-08-08T02:27:58.724Z,101403.47
2022-08-08T02:30:49.751Z,101405.38
2022-08-08T02:34:08.170Z,101403.72
2022-08-08T02:37:00.021Z,101400.19
2022-08-08T02:39:59.920Z,101394.88
2022-08-08T02:44:38.062Z,101378.34
2022-08-08T02:46:50.645Z,101392.41
2022-08-08T02:50:18.049Z,101402.09
2022-08-08T02:53:14.529Z,101403.03
2022-08-08T02:56:24.436Z,101400.47
2022-08-08T02:59:58.544Z,101406.72
2022-08-08T03:03:15.009Z,101413.97
2022-08-08T03:06:46.472Z,101413.22
2022-08-08T03:10:32.579Z,101416.00
2022-08-08T03:15:53.685Z,101420.53
2022-08-08T03:16:35.314Z,101418.81
2022-08-08T03:19:33.472Z,101419.78
2022-08-08T03:22:04.241Z,101423.34
2022-08-08T03:24:58.742Z,101418.16
2022-08-08T03:27:35.824Z,101421.69
2022-08-08T03:30:15.247Z,101423.47
2022-08-08T03:33:07.546Z,101421.78
2022-08-08T03:36:01.541Z,101420.03
2022-08-08T03:38:58.299Z,101426.25
2022-08-08T03:42:13.258Z,101425.34
2022-08-08T03:44:11.667Z,101428.88
2022-08-08T03:46:55.539Z,101431.53
2022-08-08T03:50:00.021Z,101435.06
2022-08-08T03:52:23.847Z,101439.44
2022-08-08T03:55:09.753Z,101445.63
2022-08-08T03:58:31.632Z,101441.25
2022-08-08T04:00:56.506Z,101444.72
2022-08-08T04:03:57.949Z,101441.16
2022-08-08T04:06:37.733Z,101446.44
2022-08-08T04:10:00.822Z,101449.00
2022-08-08T04:12:25.731Z,101448.88
2022-08-08T04:14:57.526Z,101454.91
2022-08-08T04:17:45.714Z,101454.84
2022-08-08T04:20:16.051Z,101460.06
2022-08-08T04:22:51.586Z,101458.22
2022-08-08T04:25:21.938Z,101461.72
2022-08-08T04:28:35.430Z,101461.59
2022-08-08T04:30:50.621Z,101468.53
2022-08-08T04:33:24.267Z,101377.94
2022-08-08T04:35:56.218Z,101462.06
2022-08-08T04:38:27.533Z,101463.69
2022-08-08T04:41:05.059Z,101467.13
2022-08-08T04:43:46.136Z,101464.31
2022-08-08T04:46:22.561Z,101466.81
2022-08-08T04:49:06.507Z,101461.31
2022-08-08T04:51:55.414Z,101467.38
2022-08-08T04:54:40.110Z,101465.38
2022-08-08T04:57:14.151Z,101470.50
2022-08-08T04:59:45.216Z,101472.97
2022-08-08T05:02:20.078Z,101468.34
2022-08-08T05:04:49.232Z,101468.16
2022-08-08T05:07:18.699Z,101466.13
2022-08-08T05:09:47.840Z,101476.50
2022-08-08T05:12:20.864Z,101475.09
2022-08-08T05:15:05.737Z,101477.22
2022-08-08T05:17:54.316Z,101480.34
2022-08-08T05:20:32.920Z,101483.34
2022-08-08T05:23:02.497Z,101486.31
2022-08-08T05:25:40.536Z,101485.75
2022-08-08T05:28:11.082Z,101488.84
2022-08-08T05:30:48.901Z,101483.91
2022-08-08T05:33:44.024Z,101493.22
2022-08-08T05:36:27.970Z,101485.56
2022-08-08T05:38:59.670Z,101489.72
2022-08-08T05:41:28.541Z,101493.97
2022-08-08T05:44:05.063Z,101494.50
2022-08-08T05:46:39.979Z,101493.19
2022-08-08T05:49:18.990Z,101503.56
2022-08-08T05:51:53.940Z,101498.78
2022-08-08T05:54:50.419Z,101508.38
2022-08-08T05:58:05.439Z,101503.59
2022-08-08T06:00:25.170Z,101505.97
2022-08-08T06:03:25.481Z,101512.81
2022-08-08T06:06:07.850Z,101511.66
2022-08-08T06:08:53.110Z,101511.38
2022-08-08T06:11:28.348Z,101512.03
2022-08-08T06:14:00.401Z,101515.59
2022-08-08T06:16:30.330Z,101518.91
2022-08-08T06:19:35.379Z,101524.06
2022-08-08T06:25:03.715Z,101524.56
2022-08-08T06:27:43.725Z,101530.41
2022-08-08T06:30:19.979Z,101528.44
2022-08-08T06:33:03.073Z,101402.28
2022-08-08T06:36:06.925Z,101525.22
2022-08-08T06:38:39.414Z,101531.03
2022-08-08T06:41:13.403Z,101523.41
2022-08-08T06:43:57.183Z,101531.13
2022-08-08T06:46:32.054Z,101529.91
2022-08-08T06:49:02.913Z,101523.13
2022-08-08T06:51:47.196Z,101525.50
2022-08-08T06:54:36.081Z,101521.66
2022-08-08T06:57:10.842Z,101530.41
2022-08-08T07:00:10.883Z,101528.38
2022-08-08T07:02:47.517Z,101518.94
2022-08-08T07:05:20.255Z,101529.13
2022-08-08T07:08:04.640Z,101525.03
2022-08-08T07:10:47.595Z,101528.91
2022-08-08T07:13:19.293Z,101527.63
2022-08-08T07:16:06.115Z,101531.56
2022-08-08T07:18:55.918Z,101539.22
2022-08-08T07:21:37.566Z,101530.00
2022-08-08T07:24:11.251Z,101535.25
2022-08-08T07:26:55.315Z,101537.59
2022-08-08T07:29:58.911Z,101535.50
2022-08-08T07:32:22.244Z,101527.84
2022-08-08T07:35:00.223Z,101529.09
2022-08-08T07:37:55.996Z,101537.69
2022-08-08T07:40:28.814Z,101533.41
2022-08-08T07:43:09.599Z,101536.50
2022-08-08T07:46:17.822Z,101532.59
2022-08-08T07:48:49.146Z,101534.75
2022-08-08T07:51:45.100Z,101535.94
2022-08-08T07:54:44.965Z,101543.63
2022-08-08T07:57:36.241Z,101537.94
2022-08-08T08:00:20.940Z,101547.78
2022-08-08T08:03:11.127Z,101538.75
2022-08-08T08:05:50.822Z,101552.78
2022-08-08T08:08:30.169Z,101548.81
2022-08-08T08:11:00.988Z,101539.88
2022-08-08T08:14:07.817Z,101540.81
2022-08-08T08:16:32.133Z,101545.25
2022-08-08T08:19:23.585Z,101547.47
2022-08-08T08:22:07.865Z,101547.19
2022-08-08T08:24:47.766Z,101549.56
2022-08-08T08:27:24.502Z,101546.41
2022-08-08T08:30:10.778Z,101552.59
2022-08-08T08:32:51.412Z,101551.97
2022-08-08T08:35:30.061Z,101549.03
2022-08-08T08:38:22.078Z,101552.75
2022-08-08T08:41:23.879Z,101559.00
2022-08-08T08:44:13.979Z,101551.16
2022-08-08T08:47:00.283Z,101557.03
2022-08-08T08:49:42.981Z,101544.31
2022-08-08T08:52:20.556Z,101552.25
2022-08-08T08:55:01.753Z,101544.94
2022-08-08T08:57:35.748Z,101554.91
2022-08-08T09:00:14.754Z,101538.78
2022-08-08T09:02:52.778Z,101543.75
2022-08-08T09:05:49.051Z,101557.97
2022-08-08T09:08:24.199Z,101553.28
2022-08-08T09:11:18.464Z,101546.13
2022-08-08T09:13:48.700Z,101543.78
2022-08-08T09:16:28.834Z,101545.97
2022-08-08T09:19:06.652Z,101549.97
2022-08-08T09:21:58.689Z,101537.84
2022-08-08T09:24:43.890Z,101545.84
2022-08-08T09:27:42.172Z,101537.13
2022-08-08T09:30:17.877Z,101545.44
2022-08-08T09:33:12.805Z,101541.22
2022-08-08T09:35:50.906Z,101552.59
2022-08-08T09:39:10.026Z,101553.72
2022-08-08T09:42:20.565Z,101549.28
2022-08-08T09:45:15.274Z,101542.69
2022-08-08T09:48:10.097Z,101549.69
2022-08-08T09:50:50.458Z,101536.25
2022-08-08T09:54:03.336Z,101532.34
2022-08-08T09:56:41.438Z,101533.91
2022-08-08T10:00:01.855Z,101525.53
2022-08-08T10:02:37.896Z,101527.16
2022-08-08T10:05:22.803Z,101532.56
2022-08-08T10:08:00.504Z,101527.03
2022-08-08T10:10:32.464Z,101538.06
2022-08-08T10:13:06.213Z,101528.50
2022-08-08T10:15:59.064Z,101518.81
2022-08-08T10:18:32.868Z,101522.50
2022-08-08T10:21:08.252Z,101520.16
2022-08-08T10:23:58.367Z,101517.16
2022-08-08T10:26:56.626Z,101514.03
2022-08-08T10:29:25.041Z,101516.78
2022-08-08T10:32:17.650Z,101517.47
2022-08-08T10:35:01.335Z,101519.28
2022-08-08T10:37:31.833Z,101508.97
2022-08-08T10:40:16.188Z,101230.97
2022-08-08T10:42:48.640Z,101504.69
2022-08-08T10:45:19.009Z,101508.09
2022-08-08T10:47:55.823Z,101501.84
2022-08-08T10:50:33.132Z,101502.31
2022-08-08T10:53:12.740Z,101497.53
2022-08-08T10:55:46.758Z,101501.31
2022-08-08T10:58:16.183Z,101493.38
2022-08-08T11:00:48.450Z,101487.00
2022-08-08T11:03:52.391Z,101484.38
2022-08-08T11:06:12.656Z,101491.47
2022-08-08T11:08:49.974Z,101487.59
2022-08-08T11:12:00.060Z,101486.72
2022-08-08T11:14:16.094Z,101486.41
2022-08-08T11:16:48.520Z,101492.03
2022-08-08T11:19:19.595Z,101490.69
2022-08-08T11:21:55.447Z,101500.03
2022-08-08T11:24:29.142Z,101495.53
2022-08-08T11:27:10.285Z,101481.56
2022-08-08T11:29:58.276Z,101488.59
2022-08-08T11:32:42.558Z,101486.69
2022-08-08T11:35:27.740Z,101479.81
2022-08-08T11:38:39.129Z,101486.53
2022-08-08T11:40:56.213Z,101475.91
2022-08-08T11:43:39.131Z,101478.63
2022-08-08T11:46:13.801Z,101469.16
2022-08-08T11:48:49.631Z,101476.88
2022-08-08T11:51:38.817Z,101472.44
2022-08-08T11:54:26.666Z,101469.34
2022-08-08T11:57:13.926Z,101463.25
2022-08-08T12:00:01.081Z,101467.28
2022-08-08T12:02:48.901Z,101466.56
2022-08-08T12:05:33.517Z,101470.44
2022-08-08T12:08:04.280Z,101465.47
2022-08-08T12:10:34.016Z,101470.59
2022-08-08T12:13:05.660Z,101465.19
2022-08-08T12:15:41.838Z,101462.56
2022-08-08T12:18:20.670Z,101468.22
2022-08-08T12:20:53.328Z,101464.09
2022-08-08T12:23:40.045Z,101456.34
2022-08-08T12:26:17.334Z,101459.94
2022-08-08T12:28:58.798Z,101458.09
2022-08-08T12:31:39.306Z,101457.28
2022-08-08T12:34:36.239Z,101460.28
2022-08-08T12:37:08.811Z,101458.75
2022-08-08T12:40:00.386Z,101453.81
2022-08-08T12:42:33.587Z,101455.53
2022-08-08T12:45:19.887Z,101448.09
2022-08-08T12:48:10.456Z,101444.66
2022-08-08T12:50:58.465Z,101448.81
2022-08-08T12:53:37.597Z,101443.03
2022-08-08T12:56:19.153Z,101451.16
2022-08-08T12:58:55.265Z,101446.66
2022-08-08T13:01:37.611Z,101442.22
2022-08-08T13:04:24.581Z,101439.50
2022-08-08T13:06:56.527Z,101432.69
2022-08-08T13:09:57.614Z,101423.97
2022-08-08T13:12:29.705Z,101430.84
2022-08-08T13:15:02.463Z,101437.94
2022-08-08T13:18:10.169Z,101430.88
2022-08-08T13:20:27.226Z,101438.78
2022-08-08T13:25:50.031Z,101431.47
2022-08-08T13:28:33.161Z,101428.16
2022-08-08T13:31:03.983Z,101423.88
2022-08-08T13:33:41.950Z,101426.56
2022-08-08T13:36:12.664Z,101428.88
2022-08-08T13:38:45.981Z,101433.13
2022-08-08T13:41:17.452Z,101435.63
2022-08-08T13:43:50.712Z,101434.63
2022-08-08T13:46:26.995Z,101422.38
2022-08-08T13:49:12.241Z,101429.13
2022-08-08T13:52:02.700Z,101423.97
2022-08-08T13:54:49.343Z,101435.38
2022-08-08T13:58:07.390Z,101422.03
2022-08-08T14:00:52.873Z,101436.06
2022-08-08T14:03:53.316Z,101434.19
2022-08-08T14:06:33.206Z,101436.84
2022-08-08T14:09:24.379Z,101428.63
2022-08-08T14:12:02.886Z,101419.84
2022-08-08T14:14:42.962Z,101420.03
2022-08-08T14:17:58.326Z,101429.44
2022-08-08T14:20:56.957Z,101417.78
2022-08-08T14:23:10.192Z,101418.84
2022-08-08T14:25:53.969Z,101431.88
2022-08-08T14:28:28.905Z,101428.84
2022-08-08T14:31:23.289Z,101429.19
2022-08-08T14:34:23.221Z,101438.47
2022-08-08T14:36:59.249Z,101442.25
2022-08-08T14:39:48.925Z,101432.44
2022-08-08T14:42:28.584Z,101437.56
2022-08-08T14:45:18.436Z,101434.28
2022-08-08T14:48:03.180Z,101430.19
2022-08-08T14:50:38.767Z,101441.13
2022-08-08T14:53:17.555Z,101430.81
2022-08-08T14:55:46.415Z,101429.28
2022-08-08T14:58:33.497Z,101431.63
2022-08-08T15:01:09.855Z,101432.06
2022-08-08T15:04:20.058Z,101429.97
2022-08-08T15:06:55.287Z,101429.03
2022-08-08T15:09:25.928Z,101428.13
2022-08-08T15:11:59.369Z,101426.47
2022-08-08T15:14:30.793Z,101425.66
2022-08-08T15:17:02.983Z,101426.06
2022-08-08T15:19:36.493Z,101416.22
2022-08-08T15:22:07.819Z,101418.81
2022-08-08T15:24:41.896Z,101417.44
2022-08-08T15:27:20.006Z,101422.69
2022-08-08T15:30:02.386Z,101415.00
2022-08-08T15:32:37.036Z,101417.47
2022-08-08T15:35:10.179Z,101412.28
2022-08-08T15:37:42.764Z,101401.03
2022-08-08T15:40:17.732Z,101413.28
2022-08-08T15:42:49.611Z,101407.91
2022-08-08T15:45:22.934Z,101418.50
2022-08-08T15:48:15.682Z,101414.72
2022-08-08T15:51:15.553Z,101423.72
2022-08-08T15:53:50.595Z,101417.19
2022-08-08T15:56:20.425Z,101415.13
2022-08-08T15:58:54.407Z,101409.66
2022-08-08T16:01:25.037Z,101405.63
2022-08-08T16:04:10.947Z,101408.91
2022-08-08T16:06:58.794Z,101410.16
2022-08-08T16:13:10.008Z,101405.41
2022-08-08T16:13:28.300Z,101412.38
2022-08-08T16:15:17.497Z,101410.72
2022-08-08T16:18:06.775Z,101408.25
2022-08-08T16:20:37.003Z,101418.28
2022-08-08T16:23:07.737Z,101408.16
2022-08-08T16:25:52.530Z,101403.13
2022-08-08T16:28:36.322Z,101407.50
2022-08-08T16:31:08.173Z,101405.19
2022-08-08T16:33:40.762Z,101407.91
2022-08-08T16:36:15.718Z,101405.09
2022-08-08T16:38:53.896Z,101408.16
2022-08-08T16:41:28.066Z,101409.97
2022-08-08T16:44:02.871Z,101410.41
2022-08-08T16:46:43.197Z,101411.13
2022-08-08T16:49:15.175Z,101417.72
2022-08-08T16:55:01.631Z,101411.25
2022-08-08T16:55:01.763Z,101419.84
2022-08-08T16:58:13.930Z,101412.84
2022-08-08T17:00:26.879Z,101410.31
2022-08-08T17:02:56.168Z,101414.97
2022-08-08T17:05:42.425Z,101413.69
2022-08-08T17:08:26.269Z,101413.72
2022-08-08T17:11:10.435Z,101410.22
2022-08-08T17:13:50.247Z,101412.53
2022-08-08T17:16:29.840Z,101412.84
2022-08-08T17:19:01.822Z,101412.84
2022-08-08T17:21:44.712Z,101414.59
2022-08-08T17:24:27.912Z,101409.41
2022-08-08T17:27:04.614Z,101412.75
2022-08-08T17:29:36.563Z,101419.16
2022-08-08T17:32:16.519Z,101416.34
2022-08-08T17:35:54.662Z,101420.47
2022-08-08T17:39:05.407Z,101417.97
2022-08-08T17:41:02.301Z,101415.69
2022-08-08T17:44:35.836Z,101419.50
2022-08-08T17:47:24.145Z,101417.72
2022-08-08T17:50:01.352Z,101417.25
2022-08-08T17:52:49.797Z,101424.09
2022-08-08T17:56:04.873Z,101426.25
2022-08-08T17:58:21.516Z,101429.69
2022-08-08T18:01:01.335Z,101428.69
2022-08-08T18:08:01.092Z,101433.84
2022-08-08T18:10:12.762Z,101429.72
2022-08-08T18:15:39.728Z,101439.63
2022-08-08T18:18:50.666Z,101433.44
2022-08-08T18:22:00.596Z,101446.34
2022-08-08T18:24:33.209Z,101439.31
2022-08-08T18:27:17.303Z,101448.72
2022-08-08T18:30:09.995Z,101446.44
2022-08-08T18:33:36.895Z,101443.16
2022-08-08T18:36:46.771Z,101457.50
2022-08-08T18:39:47.085Z,101459.09
2022-08-08T18:42:56.162Z,101463.19
2022-08-08T18:45:44.776Z,101462.91
2022-08-08T18:48:52.863Z,101460.72
2022-08-08T18:51:53.351Z,101466.69
2022-08-08T18:54:58.962Z,101472.94
2022-08-08T18:57:36.984Z,101474.84
2022-08-08T19:00:26.042Z,101474.09
2022-08-08T19:03:09.151Z,101485.00
2022-08-08T19:05:53.246Z,101482.91
2022-08-08T19:08:36.262Z,101487.22
2022-08-08T19:12:26.570Z,101493.22
2022-08-08T19:15:04.846Z,101499.41
2022-08-08T19:17:47.907Z,101502.00
2022-08-08T19:20:53.370Z,101503.69
2022-08-08T19:23:39.088Z,101503.31
2022-08-08T19:26:31.347Z,101499.50
2022-08-08T19:29:20.596Z,101502.72
2022-08-08T19:35:12.255Z,101513.47
2022-08-08T19:38:02.087Z,101515.00
2022-08-08T19:40:34.110Z,101514.66
2022-08-08T19:43:11.878Z,101513.19
2022-08-08T19:45:58.128Z,101519.28
2022-08-08T19:48:31.691Z,101517.75
2022-08-08T19:51:08.117Z,101516.34
2022-08-08T19:53:53.340Z,101514.13
2022-08-08T19:56:25.939Z,101512.00
2022-08-08T19:59:08.597Z,101512.47
2022-08-08T20:02:02.120Z,101512.00
2022-08-08T20:04:33.383Z,101514.38
2022-08-08T20:08:29.519Z,101519.19
2022-08-08T20:09:59.082Z,101522.22
2022-08-08T20:12:35.496Z,101525.78
2022-08-08T20:15:17.059Z,101526.84
2022-08-08T20:17:50.682Z,101529.78
2022-08-08T20:20:31.296Z,101531.16
2022-08-08T20:23:00.307Z,101533.22
2022-08-08T20:25:36.603Z,101531.72
2022-08-08T20:28:16.048Z,101537.31
2022-08-08T20:30:55.740Z,101534.00
2022-08-08T20:33:27.107Z,101537.63
2022-08-08T20:36:22.215Z,101534.94
2022-08-08T20:38:58.673Z,101531.28
2022-08-08T20:41:29.643Z,101525.09
2022-08-08T20:44:02.878Z,101532.31
2022-08-08T20:46:34.459Z,101531.75
2022-08-08T20:49:10.725Z,101532.00
2022-08-08T20:51:41.859Z,101536.69
2022-08-08T20:54:15.651Z,101539.63
2022-08-08T20:57:03.979Z,101548.03
2022-08-08T20:59:44.155Z,101543.09
2022-08-08T21:02:25.413Z,101547.16
2022-08-08T21:05:00.312Z,101541.09
2022-08-08T21:07:47.940Z,101538.59
2022-08-08T21:11:15.180Z,101539.91
2022-08-08T21:13:47.604Z,101547.34
2022-08-08T21:16:29.064Z,101548.44
2022-08-08T21:18:58.154Z,101541.50
2022-08-08T21:21:39.956Z,101554.88
2022-08-08T21:24:25.576Z,101553.19
2022-08-08T21:26:59.578Z,101554.06
2022-08-08T21:30:02.652Z,101553.19
2022-08-08T21:32:25.110Z,101552.47
2022-08-08T21:34:56.898Z,101547.16
2022-08-08T21:37:54.417Z,101550.81
2022-08-08T21:40:31.190Z,101550.78
2022-08-08T21:43:00.838Z,101553.31
2022-08-08T21:45:44.594Z,101555.81
2022-08-08T21:48:35.381Z,101554.59
2022-08-08T21:51:11.216Z,101555.47
2022-08-08T21:54:31.632Z,101555.53
2022-08-08T21:56:41.972Z,101550.25
2022-08-08T21:59:12.936Z,101555.63
2022-08-08T22:01:44.577Z,101551.31
2022-08-08T22:04:21.853Z,101548.84
2022-08-08T22:06:53.909Z,101557.06
2022-08-08T22:09:26.899Z,101558.97
2022-08-08T22:12:09.691Z,101555.56
2022-08-08T22:14:43.681Z,101558.50
2022-08-08T22:17:17.115Z,101561.47
2022-08-08T22:20:12.399Z,101560.78
2022-08-08T22:22:37.990Z,101564.75
2022-08-08T22:25:12.346Z,101566.66
2022-08-08T22:28:03.600Z,101567.63
2022-08-08T22:30:33.938Z,101564.19
2022-08-08T22:33:09.218Z,101574.97
2022-08-08T22:36:05.178Z,101572.34
2022-08-08T22:38:48.916Z,101567.91
2022-08-08T22:41:21.220Z,101564.38
2022-08-08T22:44:02.265Z,101570.72
2022-08-08T22:46:38.975Z,101576.19
2022-08-08T22:49:09.390Z,101573.72
2022-08-08T22:51:42.883Z,101574.88
2022-08-08T22:54:32.497Z,101578.72
2022-08-08T22:57:08.673Z,101577.19
2022-08-08T22:59:48.319Z,101579.22
2022-08-08T23:02:29.158Z,101574.97
2022-08-08T23:05:02.115Z,101577.84
2022-08-08T23:07:51.865Z,101580.75
2022-08-08T23:10:25.391Z,101586.22
2022-08-08T23:12:56.857Z,101594.00
2022-08-08T23:16:38.912Z,101591.38
2022-08-08T23:18:14.777Z,101592.69
2022-08-08T23:20:44.563Z,101592.13
2022-08-08T23:23:23.382Z,101588.94
2022-08-08T23:25:52.809Z,101595.31
2022-08-08T23:28:26.610Z,101598.94
2022-08-08T23:31:51.740Z,101599.59
2022-08-08T23:34:20.791Z,101531.25
2022-08-08T23:36:57.950Z,101604.69
2022-08-08T23:39:32.417Z,101609.06
2022-08-08T23:42:11.266Z,101598.50
2022-08-08T23:44:41.468Z,101604.97
2022-08-08T23:49:02.368Z,101601.59
2022-08-08T23:50:05.738Z,101600.94
2022-08-08T23:52:35.054Z,101602.94
2022-08-08T23:55:14.223Z,101600.22
2022-08-08T23:57:52.480Z,101603.91
